sensor_id;sensor_type;location;lat;lon;timestamp;temperature;humidity
11423;DHT22;5768;51.476;7.210;2024-01-06T00:03:55;7.90;1.40
11423;DHT22;5768;51.476;7.210;2024-01-06T00:08:57;7.80;1.40
11423;DHT22;5768;51.476;7.210;2024-01-06T00:14:00;7.80;1.40
11423;DHT22;5768;51.476;7.210;2024-01-06T00:19:03;7.90;1.40
11423;DHT22;5768;51.476;7.210;2024-01-06T00:24:05;8.00;1.40
11423;DHT22;5768;51.476;7.210;2024-01-06T00:29:08;8.10;1.40
11423;DHT22;5768;51.476;7.210;2024-01-06T00:34:11;8.10;1.40
11423;DHT22;5768;51.476;7.210;2024-01-06T00:39:13;8.20;1.40
11423;DHT22;5768;51.476;7.210;2024-01-06T00:44:16;8.10;1.40
11423;DHT22;5768;51.476;7.210;2024-01-06T00:49:18;7.90;1.40
11423;DHT22;5768;51.476;7.210;2024-01-06T00:54:20;7.80;1.40
11423;DHT22;5768;51.476;7.210;2024-01-06T00:59:24;8.00;1.40
11423;DHT22;5768;51.476;7.210;2024-01-06T01:04:26;8.00;1.40
11423;DHT22;5768;51.476;7.210;2024-01-06T01:09:28;7.90;1.40
11423;DHT22;5768;51.476;7.210;2024-01-06T01:14:32;7.80;1.40
11423;DHT22;5768;51.476;7.210;2024-01-06T01:19:34;8.10;1.40
11423;DHT22;5768;51.476;7.210;2024-01-06T01:24:36;8.10;1.40
11423;DHT22;5768;51.476;7.210;2024-01-06T01:29:39;8.00;1.40
11423;DHT22;5768;51.476;7.210;2024-01-06T01:34:41;8.20;1.40
11423;DHT22;5768;51.476;7.210;2024-01-06T01:39:43;8.10;1.40
11423;DHT22;5768;51.476;7.210;2024-01-06T01:44:47;8.30;1.40
11423;DHT22;5768;51.476;7.210;2024-01-06T01:49:49;8.40;1.40
11423;DHT22;5768;51.476;7.210;2024-01-06T01:54:52;8.40;1.40
11423;DHT22;5768;51.476;7.210;2024-01-06T01:59:57;8.40;1.40
11423;DHT22;5768;51.476;7.210;2024-01-06T02:04:59;8.40;1.40
11423;DHT22;5768;51.476;7.210;2024-01-06T02:10:02;8.40;1.40
11423;DHT22;5768;51.476;7.210;2024-01-06T02:15:07;8.60;1.40
11423;DHT22;5768;51.476;7.210;2024-01-06T02:20:11;8.40;1.40
11423;DHT22;5768;51.476;7.210;2024-01-06T02:25:16;8.40;1.40
11423;DHT22;5768;51.476;7.210;2024-01-06T02:30:20;8.40;1.40
11423;DHT22;5768;51.476;7.210;2024-01-06T02:35:22;8.40;1.40
11423;DHT22;5768;51.476;7.210;2024-01-06T02:40:26;8.50;1.40
11423;DHT22;5768;51.476;7.210;2024-01-06T02:45:34;8.30;1.40
11423;DHT22;5768;51.476;7.210;2024-01-06T02:50:36;8.30;1.40
11423;DHT22;5768;51.476;7.210;2024-01-06T02:55:40;8.30;1.40
11423;DHT22;5768;51.476;7.210;2024-01-06T03:00:42;8.40;1.40
11423;DHT22;5768;51.476;7.210;2024-01-06T03:05:44;8.50;1.40
11423;DHT22;5768;51.476;7.210;2024-01-06T03:10:50;8.30;1.40
11423;DHT22;5768;51.476;7.210;2024-01-06T03:15:53;8.10;1.40
11423;DHT22;5768;51.476;7.210;2024-01-06T03:20:55;7.80;1.40
11423;DHT22;5768;51.476;7.210;2024-01-06T03:25:58;7.80;1.40
11423;DHT22;5768;51.476;7.210;2024-01-06T03:31:06;7.80;1.40
11423;DHT22;5768;51.476;7.210;2024-01-06T03:36:09;7.70;1.40
11423;DHT22;5768;51.476;7.210;2024-01-06T03:41:13;7.80;1.40
11423;DHT22;5768;51.476;7.210;2024-01-06T03:46:15;7.60;1.40
11423;DHT22;5768;51.476;7.210;2024-01-06T03:51:19;7.70;1.40
11423;DHT22;5768;51.476;7.210;2024-01-06T03:56:24;7.60;1.40
11423;DHT22;5768;51.476;7.210;2024-01-06T04:01:26;7.50;1.40
11423;DHT22;5768;51.476;7.210;2024-01-06T04:06:29;7.40;1.40
11423;DHT22;5768;51.476;7.210;2024-01-06T04:11:34;7.30;1.40
11423;DHT22;5768;51.476;7.210;2024-01-06T04:16:36;7.40;1.40
11423;DHT22;5768;51.476;7.210;2024-01-06T04:21:38;7.40;1.40
11423;DHT22;5768;51.476;7.210;2024-01-06T04:26:42;7.10;1.40
11423;DHT22;5768;51.476;7.210;2024-01-06T04:31:45;7.10;1.40
11423;DHT22;5768;51.476;7.210;2024-01-06T04:36:47;6.90;1.40
11423;DHT22;5768;51.476;7.210;2024-01-06T04:41:51;6.80;1.40
11423;DHT22;5768;51.476;7.210;2024-01-06T04:46:53;6.90;1.40
11423;DHT22;5768;51.476;7.210;2024-01-06T04:51:55;7.00;1.40
11423;DHT22;5768;51.476;7.210;2024-01-06T04:56:59;6.90;1.40
11423;DHT22;5768;51.476;7.210;2024-01-06T05:02:01;7.10;1.40
11423;DHT22;5768;51.476;7.210;2024-01-06T05:07:04;6.90;1.40
11423;DHT22;5768;51.476;7.210;2024-01-06T05:12:08;7.00;1.40
11423;DHT22;5768;51.476;7.210;2024-01-06T05:17:10;6.70;1.40
11423;DHT22;5768;51.476;7.210;2024-01-06T05:22:12;6.90;1.40
11423;DHT22;5768;51.476;7.210;2024-01-06T05:27:15;6.80;1.40
11423;DHT22;5768;51.476;7.210;2024-01-06T05:32:18;7.00;1.40
11423;DHT22;5768;51.476;7.210;2024-01-06T05:37:20;6.70;1.40
11423;DHT22;5768;51.476;7.210;2024-01-06T05:42:24;6.70;1.40
11423;DHT22;5768;51.476;7.210;2024-01-06T05:47:26;6.70;1.40
11423;DHT22;5768;51.476;7.210;2024-01-06T05:52:28;6.90;1.40
11423;DHT22;5768;51.476;7.210;2024-01-06T05:57:31;6.60;1.40
11423;DHT22;5768;51.476;7.210;2024-01-06T06:02:34;6.40;1.40
11423;DHT22;5768;51.476;7.210;2024-01-06T06:07:36;6.50;1.40
11423;DHT22;5768;51.476;7.210;2024-01-06T06:12:41;6.50;1.40
11423;DHT22;5768;51.476;7.210;2024-01-06T06:17:43;6.50;1.40
11423;DHT22;5768;51.476;7.210;2024-01-06T06:22:46;6.70;1.40
11423;DHT22;5768;51.476;7.210;2024-01-06T06:27:49;6.70;1.40
11423;DHT22;5768;51.476;7.210;2024-01-06T06:32:51;6.80;1.40
11423;DHT22;5768;51.476;7.210;2024-01-06T06:37:53;6.60;1.40
11423;DHT22;5768;51.476;7.210;2024-01-06T06:42:57;6.70;1.40
11423;DHT22;5768;51.476;7.210;2024-01-06T06:47:59;6.70;1.40
11423;DHT22;5768;51.476;7.210;2024-01-06T06:53:02;6.40;1.40
11423;DHT22;5768;51.476;7.210;2024-01-06T06:58:05;6.30;1.40
11423;DHT22;5768;51.476;7.210;2024-01-06T07:03:07;6.50;1.40
11423;DHT22;5768;51.476;7.210;2024-01-06T07:08:09;6.70;1.40
11423;DHT22;5768;51.476;7.210;2024-01-06T07:13:13;6.40;1.40
11423;DHT22;5768;51.476;7.210;2024-01-06T07:18:15;6.50;1.40
11423;DHT22;5768;51.476;7.210;2024-01-06T07:23:18;6.60;1.40
11423;DHT22;5768;51.476;7.210;2024-01-06T07:28:22;6.50;1.40
11423;DHT22;5768;51.476;7.210;2024-01-06T07:33:24;6.70;1.40
11423;DHT22;5768;51.476;7.210;2024-01-06T07:38:26;6.60;1.40
11423;DHT22;5768;51.476;7.210;2024-01-06T07:43:32;6.50;1.40
11423;DHT22;5768;51.476;7.210;2024-01-06T07:48:35;6.30;1.40
11423;DHT22;5768;51.476;7.210;2024-01-06T07:53:37;6.20;1.40
11423;DHT22;5768;51.476;7.210;2024-01-06T07:58:40;6.30;1.40
11423;DHT22;5768;51.476;7.210;2024-01-06T08:03:43;6.10;1.40
11423;DHT22;5768;51.476;7.210;2024-01-06T08:08:45;6.20;1.40
11423;DHT22;5768;51.476;7.210;2024-01-06T08:13:48;6.20;1.40
11423;DHT22;5768;51.476;7.210;2024-01-06T08:18:50;6.20;1.40
11423;DHT22;5768;51.476;7.210;2024-01-06T08:23:53;6.10;1.40
11423;DHT22;5768;51.476;7.210;2024-01-06T08:28:56;6.10;1.40
11423;DHT22;5768;51.476;7.210;2024-01-06T08:33:58;6.30;1.40
11423;DHT22;5768;51.476;7.210;2024-01-06T08:39:01;6.50;1.40
11423;DHT22;5768;51.476;7.210;2024-01-06T08:44:05;6.30;1.40
11423;DHT22;5768;51.476;7.210;2024-01-06T08:49:07;6.30;1.40
11423;DHT22;5768;51.476;7.210;2024-01-06T08:54:09;6.20;1.40
11423;DHT22;5768;51.476;7.210;2024-01-06T08:59:13;6.10;1.40
11423;DHT22;5768;51.476;7.210;2024-01-06T09:04:16;6.30;1.40
11423;DHT22;5768;51.476;7.210;2024-01-06T09:09:18;6.10;1.40
11423;DHT22;5768;51.476;7.210;2024-01-06T09:14:26;5.90;1.40
11423;DHT22;5768;51.476;7.210;2024-01-06T09:19:28;6.00;1.40
11423;DHT22;5768;51.476;7.210;2024-01-06T09:24:31;6.00;1.40
11423;DHT22;5768;51.476;7.210;2024-01-06T09:29:35;6.20;1.40
11423;DHT22;5768;51.476;7.210;2024-01-06T09:34:37;6.20;1.40
11423;DHT22;5768;51.476;7.210;2024-01-06T09:39:39;6.10;1.40
11423;DHT22;5768;51.476;7.210;2024-01-06T09:44:44;6.00;1.40
11423;DHT22;5768;51.476;7.210;2024-01-06T09:49:49;6.00;1.40
11423;DHT22;5768;51.476;7.210;2024-01-06T09:54:52;6.00;1.40
11423;DHT22;5768;51.476;7.210;2024-01-06T09:59:57;6.10;1.40
11423;DHT22;5768;51.476;7.210;2024-01-06T10:05:00;6.10;1.40
11423;DHT22;5768;51.476;7.210;2024-01-06T10:10:02;6.10;1.40
11423;DHT22;5768;51.476;7.210;2024-01-06T10:15:07;6.00;1.40
11423;DHT22;5768;51.476;7.210;2024-01-06T10:20:11;6.00;1.40
11423;DHT22;5768;51.476;7.210;2024-01-06T10:25:15;5.80;1.40
11423;DHT22;5768;51.476;7.210;2024-01-06T10:30:20;5.80;1.40
11423;DHT22;5768;51.476;7.210;2024-01-06T10:35:26;5.60;1.40
11423;DHT22;5768;51.476;7.210;2024-01-06T10:40:31;5.80;1.40
11423;DHT22;5768;51.476;7.210;2024-01-06T10:45:39;5.70;1.40
11423;DHT22;5768;51.476;7.210;2024-01-06T10:50:41;5.50;1.40
11423;DHT22;5768;51.476;7.210;2024-01-06T10:55:45;5.30;1.40
11423;DHT22;5768;51.476;7.210;2024-01-06T11:00:52;5.30;1.40
11423;DHT22;5768;51.476;7.210;2024-01-06T11:05:57;5.30;1.40
11423;DHT22;5768;51.476;7.210;2024-01-06T11:11:00;5.40;1.40
11423;DHT22;5768;51.476;7.210;2024-01-06T11:16:04;5.10;1.40
11423;DHT22;5768;51.476;7.210;2024-01-06T11:21:26;5.10;1.40
11423;DHT22;5768;51.476;7.210;2024-01-06T11:26:29;5.30;1.40
11423;DHT22;5768;51.476;7.210;2024-01-06T11:31:33;5.50;1.40
11423;DHT22;5768;51.476;7.210;2024-01-06T11:36:36;5.50;1.40
11423;DHT22;5768;51.476;7.210;2024-01-06T11:41:51;5.20;1.40
11423;DHT22;5768;51.476;7.210;2024-01-06T11:46:56;4.80;1.40
11423;DHT22;5768;51.476;7.210;2024-01-06T11:52:03;5.10;1.40
11423;DHT22;5768;51.476;7.210;2024-01-06T11:57:06;5.30;1.40
11423;DHT22;5768;51.476;7.210;2024-01-06T12:02:12;5.30;1.40
11423;DHT22;5768;51.476;7.210;2024-01-06T12:07:16;5.40;1.40
11423;DHT22;5768;51.476;7.210;2024-01-06T12:12:18;5.50;1.40
11423;DHT22;5768;51.476;7.210;2024-01-06T12:17:22;5.50;1.40
11423;DHT22;5768;51.476;7.210;2024-01-06T12:22:29;5.50;1.40
11423;DHT22;5768;51.476;7.210;2024-01-06T12:27:32;5.40;1.40
11423;DHT22;5768;51.476;7.210;2024-01-06T12:32:35;5.40;1.40
11423;DHT22;5768;51.476;7.210;2024-01-06T12:37:38;5.30;1.40
11423;DHT22;5768;51.476;7.210;2024-01-06T12:42:40;5.20;1.40
11423;DHT22;5768;51.476;7.210;2024-01-06T12:47:44;4.90;1.40
11423;DHT22;5768;51.476;7.210;2024-01-06T12:52:46;4.80;1.40
11423;DHT22;5768;51.476;7.210;2024-01-06T12:57:48;5.10;1.40
11423;DHT22;5768;51.476;7.210;2024-01-06T13:02:52;5.20;1.40
11423;DHT22;5768;51.476;7.210;2024-01-06T13:07:54;5.00;1.40
11423;DHT22;5768;51.476;7.210;2024-01-06T13:12:56;5.00;1.40
11423;DHT22;5768;51.476;7.210;2024-01-06T13:18:00;5.10;1.40
11423;DHT22;5768;51.476;7.210;2024-01-06T13:23:02;5.20;1.40
11423;DHT22;5768;51.476;7.210;2024-01-06T13:28:08;5.10;1.40
11423;DHT22;5768;51.476;7.210;2024-01-06T13:33:12;5.30;1.40
11423;DHT22;5768;51.476;7.210;2024-01-06T13:38:14;4.90;1.40
11423;DHT22;5768;51.476;7.210;2024-01-06T13:43:17;5.00;1.40
11423;DHT22;5768;51.476;7.210;2024-01-06T13:48:21;4.60;1.40
11423;DHT22;5768;51.476;7.210;2024-01-06T13:53:23;4.60;1.40
11423;DHT22;5768;51.476;7.210;2024-01-06T13:58:25;4.80;1.40
11423;DHT22;5768;51.476;7.210;2024-01-06T14:03:29;4.80;1.40
11423;DHT22;5768;51.476;7.210;2024-01-06T14:08:32;4.80;1.40
11423;DHT22;5768;51.476;7.210;2024-01-06T14:13:35;4.80;1.40
11423;DHT22;5768;51.476;7.210;2024-01-06T14:18:38;4.50;1.40
11423;DHT22;5768;51.476;7.210;2024-01-06T14:23:40;4.20;1.40
11423;DHT22;5768;51.476;7.210;2024-01-06T14:28:43;4.20;1.40
11423;DHT22;5768;51.476;7.210;2024-01-06T14:33:46;4.40;1.40
11423;DHT22;5768;51.476;7.210;2024-01-06T14:38:48;4.40;1.40
11423;DHT22;5768;51.476;7.210;2024-01-06T14:43:51;4.50;1.40
11423;DHT22;5768;51.476;7.210;2024-01-06T14:48:54;4.40;1.40
11423;DHT22;5768;51.476;7.210;2024-01-06T14:53:56;4.60;1.40
11423;DHT22;5768;51.476;7.210;2024-01-06T14:58:59;4.90;1.40
11423;DHT22;5768;51.476;7.210;2024-01-06T15:04:03;4.50;1.40
11423;DHT22;5768;51.476;7.210;2024-01-06T15:09:05;4.50;1.40
11423;DHT22;5768;51.476;7.210;2024-01-06T15:14:07;4.50;1.40
11423;DHT22;5768;51.476;7.210;2024-01-06T15:19:11;4.50;1.40
11423;DHT22;5768;51.476;7.210;2024-01-06T15:24:14;4.40;1.40
11423;DHT22;5768;51.476;7.210;2024-01-06T15:29:18;4.70;1.40
11423;DHT22;5768;51.476;7.210;2024-01-06T15:34:22;4.70;1.40
11423;DHT22;5768;51.476;7.210;2024-01-06T15:39:25;4.70;1.40
11423;DHT22;5768;51.476;7.210;2024-01-06T15:44:27;4.80;1.40
11423;DHT22;5768;51.476;7.210;2024-01-06T15:49:31;4.80;1.40
11423;DHT22;5768;51.476;7.210;2024-01-06T15:54:33;4.90;1.40
11423;DHT22;5768;51.476;7.210;2024-01-06T15:59:35;4.90;1.40
11423;DHT22;5768;51.476;7.210;2024-01-06T16:04:39;4.60;1.40
11423;DHT22;5768;51.476;7.210;2024-01-06T16:09:41;4.50;1.40
11423;DHT22;5768;51.476;7.210;2024-01-06T16:14:43;4.50;1.40
11423;DHT22;5768;51.476;7.210;2024-01-06T16:19:47;4.60;1.40
11423;DHT22;5768;51.476;7.210;2024-01-06T16:24:49;4.80;1.40
11423;DHT22;5768;51.476;7.210;2024-01-06T16:29:51;4.80;1.40
11423;DHT22;5768;51.476;7.210;2024-01-06T16:34:55;4.90;1.40
11423;DHT22;5768;51.476;7.210;2024-01-06T16:39:57;4.80;1.40
11423;DHT22;5768;51.476;7.210;2024-01-06T16:44:59;4.80;1.40
11423;DHT22;5768;51.476;7.210;2024-01-06T16:50:03;4.80;1.40
11423;DHT22;5768;51.476;7.210;2024-01-06T16:55:07;5.10;1.40
11423;DHT22;5768;51.476;7.210;2024-01-06T17:00:10;5.20;1.40
11423;DHT22;5768;51.476;7.210;2024-01-06T17:05:14;5.20;1.40
11423;DHT22;5768;51.476;7.210;2024-01-06T17:10:16;4.80;1.40
11423;DHT22;5768;51.476;7.210;2024-01-06T17:15:19;4.80;1.40
11423;DHT22;5768;51.476;7.210;2024-01-06T17:20:26;4.90;1.40
11423;DHT22;5768;51.476;7.210;2024-01-06T17:25:28;4.70;1.40
11423;DHT22;5768;51.476;7.210;2024-01-06T17:30:32;4.80;1.40
11423;DHT22;5768;51.476;7.210;2024-01-06T17:35:38;5.00;1.40
11423;DHT22;5768;51.476;7.210;2024-01-06T17:40:41;5.00;1.40
11423;DHT22;5768;51.476;7.210;2024-01-06T17:50:53;5.00;1.40
11423;DHT22;5768;51.476;7.210;2024-01-06T17:55:55;5.20;1.40
11423;DHT22;5768;51.476;7.210;2024-01-06T18:00:58;5.30;1.40
11423;DHT22;5768;51.476;7.210;2024-01-06T18:06:01;5.10;1.40
11423;DHT22;5768;51.476;7.210;2024-01-06T18:11:06;4.90;1.40
11423;DHT22;5768;51.476;7.210;2024-01-06T18:16:08;4.80;1.40
11423;DHT22;5768;51.476;7.210;2024-01-06T18:21:15;4.90;1.40
11423;DHT22;5768;51.476;7.210;2024-01-06T18:26:17;4.80;1.40
11423;DHT22;5768;51.476;7.210;2024-01-06T18:31:22;5.00;1.40
11423;DHT22;5768;51.476;7.210;2024-01-06T18:36:25;5.00;1.40
11423;DHT22;5768;51.476;7.210;2024-01-06T18:41:27;4.90;1.40
11423;DHT22;5768;51.476;7.210;2024-01-06T18:46:30;4.80;1.40
11423;DHT22;5768;51.476;7.210;2024-01-06T18:51:33;4.70;1.40
11423;DHT22;5768;51.476;7.210;2024-01-06T18:56:37;4.70;1.40
11423;DHT22;5768;51.476;7.210;2024-01-06T19:01:39;4.90;1.40
11423;DHT22;5768;51.476;7.210;2024-01-06T19:06:46;5.00;1.40
11423;DHT22;5768;51.476;7.210;2024-01-06T19:11:48;5.00;1.40
11423;DHT22;5768;51.476;7.210;2024-01-06T19:16:51;4.70;1.40
11423;DHT22;5768;51.476;7.210;2024-01-06T19:21:54;4.70;1.40
11423;DHT22;5768;51.476;7.210;2024-01-06T19:26:56;4.70;1.40
11423;DHT22;5768;51.476;7.210;2024-01-06T19:31:59;5.10;1.40
11423;DHT22;5768;51.476;7.210;2024-01-06T19:37:02;5.00;1.40
11423;DHT22;5768;51.476;7.210;2024-01-06T19:42:05;4.80;1.40
11423;DHT22;5768;51.476;7.210;2024-01-06T19:47:08;4.70;1.40
11423;DHT22;5768;51.476;7.210;2024-01-06T19:52:12;4.80;1.40
11423;DHT22;5768;51.476;7.210;2024-01-06T19:57:15;4.80;1.40
11423;DHT22;5768;51.476;7.210;2024-01-06T20:02:17;4.90;1.40
11423;DHT22;5768;51.476;7.210;2024-01-06T20:07:21;4.90;1.40
11423;DHT22;5768;51.476;7.210;2024-01-06T20:12:27;4.80;1.40
11423;DHT22;5768;51.476;7.210;2024-01-06T20:17:29;4.70;1.40
11423;DHT22;5768;51.476;7.210;2024-01-06T20:22:32;4.70;1.40
11423;DHT22;5768;51.476;7.210;2024-01-06T20:27:35;4.80;1.40
11423;DHT22;5768;51.476;7.210;2024-01-06T20:32:37;4.80;1.40
11423;DHT22;5768;51.476;7.210;2024-01-06T20:37:41;4.90;1.40
11423;DHT22;5768;51.476;7.210;2024-01-06T20:42:43;5.20;1.40
11423;DHT22;5768;51.476;7.210;2024-01-06T20:47:45;5.20;1.40
11423;DHT22;5768;51.476;7.210;2024-01-06T20:52:48;5.20;1.40
11423;DHT22;5768;51.476;7.210;2024-01-06T20:57:50;5.10;1.40
11423;DHT22;5768;51.476;7.210;2024-01-06T21:02:53;4.90;1.40
11423;DHT22;5768;51.476;7.210;2024-01-06T21:07:56;5.00;1.40
11423;DHT22;5768;51.476;7.210;2024-01-06T21:12:58;4.90;1.40
11423;DHT22;5768;51.476;7.210;2024-01-06T21:18:01;5.20;1.40
11423;DHT22;5768;51.476;7.210;2024-01-06T21:23:04;5.00;1.40
11423;DHT22;5768;51.476;7.210;2024-01-06T21:28:07;5.10;1.40
11423;DHT22;5768;51.476;7.210;2024-01-06T21:33:10;5.00;1.40
11423;DHT22;5768;51.476;7.210;2024-01-06T21:38:13;5.00;1.40
11423;DHT22;5768;51.476;7.210;2024-01-06T21:43:15;4.90;1.40
11423;DHT22;5768;51.476;7.210;2024-01-06T21:48:18;4.90;1.40
11423;DHT22;5768;51.476;7.210;2024-01-06T21:53:21;4.60;1.40
11423;DHT22;5768;51.476;7.210;2024-01-06T21:58:24;4.70;1.40
11423;DHT22;5768;51.476;7.210;2024-01-06T22:03:27;5.00;1.40
11423;DHT22;5768;51.476;7.210;2024-01-06T22:08:31;5.20;1.40
11423;DHT22;5768;51.476;7.210;2024-01-06T22:13:34;5.00;1.40
11423;DHT22;5768;51.476;7.210;2024-01-06T22:18:36;4.90;1.40
11423;DHT22;5768;51.476;7.210;2024-01-06T22:23:39;5.10;1.40
11423;DHT22;5768;51.476;7.210;2024-01-06T22:28:41;4.90;1.40
11423;DHT22;5768;51.476;7.210;2024-01-06T22:33:45;4.70;1.40
11423;DHT22;5768;51.476;7.210;2024-01-06T22:38:49;5.00;1.40
11423;DHT22;5768;51.476;7.210;2024-01-06T22:43:51;5.10;1.40
11423;DHT22;5768;51.476;7.210;2024-01-06T22:48:53;5.10;1.40
11423;DHT22;5768;51.476;7.210;2024-01-06T22:53:57;5.00;1.40
11423;DHT22;5768;51.476;7.210;2024-01-06T22:58:59;4.90;1.40
11423;DHT22;5768;51.476;7.210;2024-01-06T23:04:02;5.00;1.40
11423;DHT22;5768;51.476;7.210;2024-01-06T23:09:05;5.00;1.40
11423;DHT22;5768;51.476;7.210;2024-01-06T23:14:07;4.70;1.40
11423;DHT22;5768;51.476;7.210;2024-01-06T23:19:10;4.90;1.40
11423;DHT22;5768;51.476;7.210;2024-01-06T23:24:14;4.50;1.40
11423;DHT22;5768;51.476;7.210;2024-01-06T23:29:18;4.70;1.40
11423;DHT22;5768;51.476;7.210;2024-01-06T23:34:23;4.30;1.40
11423;DHT22;5768;51.476;7.210;2024-01-06T23:39:31;4.40;1.40
11423;DHT22;5768;51.476;7.210;2024-01-06T23:44:34;4.50;1.40
11423;DHT22;5768;51.476;7.210;2024-01-06T23:49:36;4.40;1.40
11423;DHT22;5768;51.476;7.210;2024-01-06T23:54:43;4.60;1.40
11423;DHT22;5768;51.476;7.210;2024-01-06T23:59:45;4.70;1.40
